ZF1RC George Town KY current weather conditions

sailwx.info

Wind from 149 at 2 knots gusting 6

Air temperature 26.7° C
Dewpoint 23.1° C

Last reported at 2016-Aug-27 08:50 UTC.
Time now 2016-Aug-27 09:56 UTC

Location: N 19°16' W 081°23'.
View on Google Maps.

See reports from other nearby stations

  
Tides and Currents Weather Stations Pressure Air Temp Water Temp Dewpoint Dewpoint Depression Visibility Wind Speed Wind Dir Waves Ship Positions
date/time (UTC)wind fromknots sea level pressurealtimeterstation pressurevisibilityair tempwater tempwave heightnotes
2016-Aug-27 08:50 149 2 gusting 6 26.7
2016-Aug-27 08:40 169 2 gusting 6 26.7
2016-Aug-27 08:30 154 2 gusting 6 26.1
2016-Aug-27 08:20 174 2 gusting 5 26.7
2016-Aug-27 08:10 151 5 gusting 6 26.7
2016-Aug-27 08:00 123 4 gusting 6 26.1
2016-Aug-27 07:50 174 1 gusting 6 26.1
2016-Aug-27 07:40 171 4 gusting 5 26.1
2016-Aug-27 07:30 185 5 gusting 7 26.1
2016-Aug-27 07:20 179 6 gusting 6 26.1
2016-Aug-27 07:10 155 5 gusting 7 26.1
2016-Aug-27 07:00 164 4 gusting 7 26.7
2016-Aug-27 06:50 173 5 gusting 6 26.1
2016-Aug-27 06:40 148 5 gusting 6 26.7
2016-Aug-27 06:20 171 3 gusting 4 26.7
2016-Aug-27 06:10 116 3 gusting 5 26.7
2016-Aug-27 06:00 189 2 gusting 5 26.7
2016-Aug-27 05:50 178 26.7
2016-Aug-27 05:40 177 1 gusting 4 26.7
2016-Aug-27 05:30 192 1 gusting 5 26.7
2016-Aug-27 05:20 106 1 gusting 2 26.7
2016-Aug-27 05:10 089 26.1
2016-Aug-27 05:00 095 26.1
2016-Aug-27 04:50 239 26.1
2016-Aug-27 04:40 194 26.1
2016-Aug-27 04:30 341 25.6
2016-Aug-27 04:20 207 25.6
2016-Aug-27 04:10 080 25.6
2016-Aug-27 04:00 144 25.6
2016-Aug-27 03:50 078 0 gusting 0 25.6
2016-Aug-27 03:40 143 25.6
2016-Aug-27 03:30 097 25.6
2016-Aug-27 03:20 097 25.6
2016-Aug-27 03:10 087 25.6
2016-Aug-27 03:00 145 25.6
2016-Aug-27 02:50 175 25.6
2016-Aug-27 02:40 180 0 gusting 1 26.1
2016-Aug-27 02:30 098 2 gusting 4 26.1
2016-Aug-27 02:20 119 1 gusting 2 26.1
2016-Aug-27 02:10 059 1 gusting 1 26.1
2016-Aug-27 02:00 092 1 gusting 2 26.1
2016-Aug-27 01:50 076 0 gusting 2 26.1
2016-Aug-27 01:40 044 0 gusting 2 26.1
2016-Aug-27 01:30 094 1 gusting 2 26.1
2016-Aug-27 01:20 077 1 gusting 2 26.7
2016-Aug-27 01:10 113 1 gusting 2 26.7
2016-Aug-27 01:00 053 1 gusting 2 26.7
2016-Aug-27 00:50 025 0 gusting 2 26.7
2016-Aug-27 00:40 096 1 gusting 2 26.7
2016-Aug-27 00:30 048 1 gusting 1 26.7
2016-Aug-27 00:20 058 26.7
2016-Aug-27 00:10 080 0 gusting 1 26.7
2016-Aug-27 00:00 083 1 gusting 2 26.7
2016-Aug-26 23:50 096 1 gusting 2 26.7
2016-Aug-26 23:40 089 1 gusting 1 26.7
2016-Aug-26 23:30 103 27.2
2016-Aug-26 23:20 150 0 gusting 2 27.8
2016-Aug-26 23:10 105 28.3
2016-Aug-26 23:00 099 2 gusting 5 28.3
2016-Aug-26 22:54 044 28.3
2016-Aug-26 22:50 091 0 gusting 0 28.3
2016-Aug-26 22:40 160 27.8
2016-Aug-26 22:30 130 2 gusting 5 27.2
2016-Aug-26 22:20 044 1 gusting 2 27.2
2016-Aug-26 22:10 075 3 gusting 6 27.2
2016-Aug-26 22:00 046 0 gusting 5 27.8
2016-Aug-26 21:50 115 4 gusting 7 27.8
2016-Aug-26 21:40 089 6 gusting 8 27.2
2016-Aug-26 21:30 108 4 gusting 8 26.7
2016-Aug-26 21:20 100 6 gusting 8 26.7
2016-Aug-26 21:10 171 0 gusting 2 26.7
2016-Aug-26 21:00 093 1 gusting 2 26.7
2016-Aug-26 20:50 164 26.1
2016-Aug-26 20:40 210 26.7
2016-Aug-26 20:30 085 2 gusting 6 26.7
2016-Aug-26 20:20 058 4 gusting 13 26.7
2016-Aug-26 20:10 041 4 gusting 11 28.3
2016-Aug-26 20:00 020 4 gusting 5 28.3
2016-Aug-26 19:50 109 2 gusting 4 28.3
2016-Aug-26 19:40 034 2 gusting 7 28.3
2016-Aug-26 19:30 093 2 gusting 5 29.4
2016-Aug-26 19:20 121 30.0
2016-Aug-26 19:10 153 30.6
2016-Aug-26 19:00 085 4 gusting 8 31.7
2016-Aug-26 18:50 052 6 gusting 7 31.7
2016-Aug-26 18:40 009 3 gusting 6 31.7
2016-Aug-26 18:30 035 5 gusting 11 31.7
2016-Aug-26 18:20 055 5 gusting 12 31.7
2016-Aug-26 18:10 029 4 gusting 12 31.7
2016-Aug-26 18:00 094 6 gusting 8 31.7
2016-Aug-26 17:50 030 5 gusting 10 31.1
2016-Aug-26 17:40 026 7 gusting 8 31.1
2016-Aug-26 17:30 066 6 gusting 8 31.1
2016-Aug-26 17:20 061 6 gusting 10 31.1
2016-Aug-26 17:10 041 8 gusting 10 31.1
2016-Aug-26 17:00 044 8 gusting 10 31.1
2016-Aug-26 16:50 005 10 gusting 12 30.6
2016-Aug-26 16:40 039 5 gusting 12 30.6
2016-Aug-26 16:30 022 8 gusting 12 30.6
2016-Aug-26 16:20 069 5 gusting 7 30.6
2016-Aug-26 16:10 038 4 gusting 7 30.0
2016-Aug-26 16:00 048 7 gusting 8 30.0
2016-Aug-26 15:50 057 7 gusting 8 30.0
2016-Aug-26 15:40 042 8 gusting 11 30.6
2016-Aug-26 15:30 064 4 gusting 8 30.6
2016-Aug-26 15:20 050 4 gusting 6 30.0
2016-Aug-26 15:10 079 2 gusting 6 29.4
2016-Aug-26 15:00 062 2 gusting 7 29.4
2016-Aug-26 14:50 097 1 gusting 5 28.9
2016-Aug-26 14:40 087 2 gusting 6 28.9
2016-Aug-26 14:30 067 3 gusting 5 28.9
2016-Aug-26 14:20 067 1 gusting 2 28.9
2016-Aug-26 14:10 112 2 gusting 5 28.3
2016-Aug-26 14:00 060 1 gusting 4 28.9
2016-Aug-26 13:50 073 0 gusting 5 28.3
2016-Aug-26 13:40 109 1 gusting 2 28.3
2016-Aug-26 13:30 038 5 gusting 6 28.3
2016-Aug-26 13:20 082 4 gusting 10 28.3
2016-Aug-26 13:10 007 4 gusting 5 28.9
2016-Aug-26 13:00 009 1 gusting 4 28.3
2016-Aug-26 12:50 336 2 gusting 6 27.8
2016-Aug-26 12:40 059 2 gusting 6 27.8
2016-Aug-26 12:30 037 4 gusting 6 27.8
2016-Aug-26 12:20 040 1 gusting 5 27.2
2016-Aug-26 12:10 058 1 gusting 4 26.7
2016-Aug-26 12:00 068 1 gusting 2 26.7
2016-Aug-26 11:50 093 0 gusting 2 26.1
2016-Aug-26 11:40 015 1 gusting 2 26.1
2016-Aug-26 11:30 062 0 gusting 2 25.6
2016-Aug-26 11:20 113 2 gusting 4 25.6
2016-Aug-26 11:10 092 1 gusting 4 25.6
2016-Aug-26 11:00 106 0 gusting 1 25.6
2016-Aug-26 10:50 115 1 gusting 1 25.6
2016-Aug-26 10:40 104 0 gusting 1 25.6
2016-Aug-26 10:30 066 1 gusting 2 25.6
2016-Aug-26 10:20 135 25.6
2016-Aug-26 10:10 097 0 gusting 1 25.6
2016-Aug-26 10:00 207 1 gusting 2 25.6
2016-Aug-26 09:50 115 25.6
2016-Aug-26 09:40 124 1 gusting 1 25.6
2016-Aug-26 09:30 077 0 gusting 1 25.6
2016-Aug-26 09:20 086 0 gusting 1 25.6
2016-Aug-26 09:10 114 1 gusting 2 25.6
2016-Aug-26 09:00 027 1 gusting 5 25.6
2016-Aug-26 08:50 002 2 gusting 4 25.6
2016-Aug-26 08:40 354 4 gusting 8 26.1
2016-Aug-26 08:30 010 5 gusting 8 26.1
2016-Aug-26 08:20 002 5 gusting 7 26.1
2016-Aug-26 08:10 054 5 gusting 5 26.1
2016-Aug-26 08:00 028 3 gusting 5 26.1
2016-Aug-26 07:50 027 4 gusting 5 26.1
2016-Aug-26 07:40 010 2 gusting 5 26.1
2016-Aug-26 07:30 349 1 gusting 2 26.1
2016-Aug-26 07:20 325 2 gusting 6 26.1
2016-Aug-26 07:10 046 2 gusting 8 26.7
2016-Aug-26 07:00 069 7 gusting 10 26.7
2016-Aug-26 06:50 023 2 gusting 6 27.2
2016-Aug-26 06:40 012 4 gusting 6 27.2
2016-Aug-26 06:30 350 2 gusting 6 27.2
2016-Aug-26 06:20 015 3 gusting 6 27.2
2016-Aug-26 06:10 026 4 gusting 6 27.2
2016-Aug-26 06:00 031 1 gusting 4 27.2
2016-Aug-26 05:50 024 4 gusting 6 27.2
2016-Aug-26 05:40 052 1 gusting 5 27.2
2016-Aug-26 05:30 022 2 gusting 4 27.2
2016-Aug-26 05:20 27.2
2016-Aug-26 05:10 27.2
2016-Aug-26 05:00 302 1 gusting 2 27.2
2016-Aug-26 04:50 008 0 gusting 2 26.7
2016-Aug-26 04:40 006 1 gusting 2 26.7
2016-Aug-26 04:30 001 1 gusting 2 26.7
2016-Aug-26 04:20 354 0 gusting 0 26.7
2016-Aug-26 04:10 008 26.7
2016-Aug-26 04:00 350 0 gusting 0 26.7
2016-Aug-26 03:50 342 0 gusting 0 26.7
2016-Aug-26 03:40 337 0 gusting 0 26.7
2016-Aug-26 03:30 051 27.2
2016-Aug-26 03:20 025 27.2
2016-Aug-26 03:10 027 0 gusting 0 27.2
2016-Aug-26 03:00 353 0 gusting 1 27.2
2016-Aug-26 02:50 013 0 gusting 2 27.2
2016-Aug-26 02:40 047 0 gusting 1 27.8
2016-Aug-26 02:30 352 27.8
2016-Aug-26 02:20 007 1 gusting 5 27.8
2016-Aug-26 02:10 040 2 gusting 2 27.2
2016-Aug-26 02:00 045 0 gusting 2 27.8
2016-Aug-26 01:50 075 1 gusting 2 27.8
2016-Aug-26 01:40 042 0 gusting 2 27.8
2016-Aug-26 01:30 016 0 gusting 2 27.8
2016-Aug-26 01:20 111 1 gusting 2 28.3
2016-Aug-26 01:10 041 0 gusting 4 27.8
2016-Aug-26 01:00 049 1 gusting 1 27.8
2016-Aug-26 00:50 084 1 gusting 4 28.3
2016-Aug-26 00:40 062 2 gusting 2 27.8
2016-Aug-26 00:30 062 1 gusting 2 28.3
2016-Aug-26 00:20 094 0 gusting 4 28.3
2016-Aug-26 00:10 028 1 gusting 2 28.3
2016-Aug-26 00:00 087 2 gusting 4 28.3
2016-Aug-25 23:50 078 2 gusting 4 28.9
2016-Aug-25 23:40 092 1 gusting 5 28.9
2016-Aug-25 23:30 020 3 gusting 5 28.9
2016-Aug-25 23:20 014 1 gusting 4 29.4
2016-Aug-25 23:10 051 2 gusting 4 29.4
2016-Aug-25 23:00 039 2 gusting 5 30.0
2016-Aug-25 22:54 024 5 gusting 6 30.0
2016-Aug-25 22:50 020 4 gusting 5 30.0
2016-Aug-25 22:40 007 5 gusting 8 30.0
2016-Aug-25 22:30 037 2 gusting 7 30.0
2016-Aug-25 22:20 116 2 gusting 8 30.6
2016-Aug-25 22:10 053 4 gusting 8 30.6
2016-Aug-25 22:00 084 1 gusting 6 30.6
2016-Aug-25 21:50 039 6 gusting 7 30.6
2016-Aug-25 21:40 098 4 gusting 6 31.1
2016-Aug-25 21:30 046 2 gusting 6 31.1
2016-Aug-25 21:20 106 4 gusting 7 30.6
2016-Aug-25 21:10 067 5 gusting 7 30.6
2016-Aug-25 21:00 041 3 gusting 12 31.1
2016-Aug-25 20:50 048 5 gusting 11 31.1
2016-Aug-25 20:40 080 7 gusting 10 31.1
2016-Aug-25 20:30 021 8 gusting 8 31.1
2016-Aug-25 20:20 059 4 gusting 6 31.1
2016-Aug-25 20:10 066 7 gusting 10 31.1
2016-Aug-25 20:00 044 6 gusting 8 31.1
2016-Aug-25 19:50 058 6 gusting 8 31.1
2016-Aug-25 19:40 186 4 gusting 6 31.7
2016-Aug-25 19:30 022 9 gusting 10 31.1
2016-Aug-25 19:20 063 7 gusting 8 31.1
2016-Aug-25 19:10 089 6 gusting 11 31.1
2016-Aug-25 19:00 076 4 gusting 10 31.1
2016-Aug-25 18:50 061 4 gusting 8 31.7
2016-Aug-25 18:40 038 7 gusting 13 31.7
2016-Aug-25 18:30 059 6 gusting 10 31.7
2016-Aug-25 18:20 050 4 gusting 11 31.1
2016-Aug-25 18:10 089 6 gusting 12 31.7
2016-Aug-25 18:00 074 6 gusting 8 31.1
2016-Aug-25 17:50 094 6 gusting 10 30.6
2016-Aug-25 17:40 066 7 gusting 10 30.6
2016-Aug-25 17:30 015 6 gusting 8 31.1
2016-Aug-25 17:20 051 9 gusting 12 31.7
2016-Aug-25 17:10 105 2 gusting 7 31.7
2016-Aug-25 17:00 041 6 gusting 8 31.1
2016-Aug-25 16:50 035 8 gusting 10 31.1
2016-Aug-25 16:40 014 6 gusting 10 31.7
2016-Aug-25 16:30 029 8 gusting 10 31.7
2016-Aug-25 16:20 014 5 gusting 7 31.1
2016-Aug-25 16:10 040 2 gusting 10 31.7
2016-Aug-25 16:00 053 3 gusting 6 31.1
2016-Aug-25 15:50 041 6 gusting 7 30.6
2016-Aug-25 15:40 032 3 gusting 7 31.1
2016-Aug-25 15:30 036 3 gusting 6 31.1
2016-Aug-25 15:20 074 4 gusting 6 31.1
2016-Aug-25 15:10 075 4 gusting 7 30.6
2016-Aug-25 15:00 048 6 gusting 7 30.6
2016-Aug-25 14:50 059 5 gusting 8 30.6
2016-Aug-25 14:40 117 1 gusting 6 30.6
2016-Aug-25 14:30 075 3 gusting 6 30.6
2016-Aug-25 14:20 046 5 gusting 7 30.0
2016-Aug-25 14:10 028 4 gusting 7 30.0
2016-Aug-25 14:00 078 5 gusting 5 30.0
2016-Aug-25 13:50 029 4 gusting 6 30.0
2016-Aug-25 13:40 182 4 gusting 6 29.4
2016-Aug-25 13:30 079 3 gusting 6 29.4
2016-Aug-25 13:20 032 3 gusting 4 29.4
2016-Aug-25 13:10 075 2 gusting 5 29.4
2016-Aug-25 13:00 077 3 gusting 6 28.9
2016-Aug-25 12:50 039 2 gusting 6 28.9
2016-Aug-25 12:40 036 2 gusting 6 28.3
2016-Aug-25 12:30 019 1 gusting 4 27.8
2016-Aug-25 12:20 046 4 gusting 5 27.2
2016-Aug-25 12:10 025 1 gusting 1 26.7
2016-Aug-25 12:00 031 0 gusting 1 26.1
2016-Aug-25 11:50 057 0 gusting 1 25.6
2016-Aug-25 11:40 053 0 gusting 0 25.0
2016-Aug-25 11:30 047 0 gusting 1 25.0
2016-Aug-25 11:20 043 1 gusting 1 25.0
2016-Aug-25 11:10 036 1 gusting 1 25.0
2016-Aug-25 11:00 079 0 gusting 0 25.0
2016-Aug-25 10:50 046 0 gusting 0 25.0
2016-Aug-25 10:40 025 0 gusting 0 25.0
2016-Aug-25 10:30 037 25.0
2016-Aug-25 10:20 011 0 gusting 0 25.6
2016-Aug-25 10:10 057 25.6
2016-Aug-25 10:00 045 0 gusting 1 25.6
2016-Aug-25 09:50 086 0 gusting 1 25.6
2016-Aug-25 09:40 028 0 gusting 1 25.6
2016-Aug-25 09:30 049 1 gusting 2 25.6
2016-Aug-25 09:20 068 1 gusting 2 25.6
2016-Aug-25 09:10 035 1 gusting 4 25.6
2016-Aug-25 09:00 059 2 gusting 5 25.6